sensor_id;sensor_type;location;lat;lon;timestamp;P1;durP1;ratioP1;P2;durP2;ratioP2
22168;SDS011;11250;53.674;10.102;2022-11-23T09:46:41;33.25;;;20.20;;
22168;SDS011;11250;53.674;10.102;2022-11-23T09:49:14;27.17;;;19.35;;
22168;SDS011;11250;53.674;10.102;2022-11-23T09:51:41;46.15;;;20.10;;
22168;SDS011;11250;53.674;10.102;2022-11-23T09:56:35;30.80;;;17.83;;
22168;SDS011;11250;53.674;10.102;2022-11-23T09:59:01;28.45;;;18.95;;
22168;SDS011;11250;53.674;10.102;2022-11-23T10:01:28;30.38;;;17.42;;
22168;SDS011;11250;53.674;10.102;2022-11-23T10:03:54;30.20;;;19.10;;
22168;SDS011;11250;53.674;10.102;2022-11-23T10:06:23;41.35;;;19.48;;
22168;SDS011;11250;53.674;10.102;2022-11-23T10:11:49;29.85;;;18.63;;
22168;SDS011;11250;53.674;10.102;2022-11-23T10:17:07;26.67;;;16.63;;
22168;SDS011;11250;53.674;10.102;2022-11-23T10:19:51;25.20;;;16.85;;
22168;SDS011;11250;53.674;10.102;2022-11-23T10:22:25;27.77;;;17.15;;
22168;SDS011;11250;53.674;10.102;2022-11-23T10:24:51;23.15;;;16.15;;
22168;SDS011;11250;53.674;10.102;2022-11-23T10:27:17;30.35;;;15.15;;
22168;SDS011;11250;53.674;10.102;2022-11-23T10:29:43;23.98;;;16.77;;
22168;SDS011;11250;53.674;10.102;2022-11-23T10:32:29;38.08;;;16.52;;
22168;SDS011;11250;53.674;10.102;2022-11-23T10:35:09;23.25;;;15.07;;
22168;SDS011;11250;53.674;10.102;2022-11-23T10:37:35;32.13;;;17.13;;
22168;SDS011;11250;53.674;10.102;2022-11-23T10:40:02;31.52;;;14.93;;
22168;SDS011;11250;53.674;10.102;2022-11-23T10:42:29;24.70;;;13.75;;
22168;SDS011;11250;53.674;10.102;2022-11-23T10:44:55;24.75;;;14.65;;
22168;SDS011;11250;53.674;10.102;2022-11-23T10:47:32;20.02;;;13.35;;
22168;SDS011;11250;53.674;10.102;2022-11-23T10:49:57;21.52;;;13.18;;
22168;SDS011;11250;53.674;10.102;2022-11-23T10:52:30;24.98;;;13.93;;
22168;SDS011;11250;53.674;10.102;2022-11-23T10:54:57;21.02;;;13.93;;
22168;SDS011;11250;53.674;10.102;2022-11-23T10:59:59;21.98;;;12.10;;
22168;SDS011;11250;53.674;10.102;2022-11-23T11:02:25;22.77;;;12.85;;
22168;SDS011;11250;53.674;10.102;2022-11-23T11:04:51;17.53;;;12.23;;
22168;SDS011;11250;53.674;10.102;2022-11-23T11:07:35;24.80;;;12.32;;
22168;SDS011;11250;53.674;10.102;2022-11-23T11:10:02;19.15;;;11.60;;
22168;SDS011;11250;53.674;10.102;2022-11-23T11:12:28;20.83;;;12.57;;
22168;SDS011;11250;53.674;10.102;2022-11-23T11:14:55;22.55;;;11.55;;
22168;SDS011;11250;53.674;10.102;2022-11-23T11:17:24;20.90;;;11.15;;
22168;SDS011;11250;53.674;10.102;2022-11-23T11:19:50;18.50;;;11.05;;
22168;SDS011;11250;53.674;10.102;2022-11-23T11:22:25;17.93;;;10.80;;
22168;SDS011;11250;53.674;10.102;2022-11-23T11:24:51;20.75;;;12.55;;
22168;SDS011;11250;53.674;10.102;2022-11-23T11:27:21;22.27;;;12.25;;
22168;SDS011;11250;53.674;10.102;2022-11-23T11:29:48;20.33;;;12.88;;
22168;SDS011;11250;53.674;10.102;2022-11-23T11:34:44;17.60;;;11.75;;
22168;SDS011;11250;53.674;10.102;2022-11-23T11:37:22;21.90;;;13.45;;
22168;SDS011;11250;53.674;10.102;2022-11-23T11:39:53;19.73;;;12.90;;
22168;SDS011;11250;53.674;10.102;2022-11-23T11:42:25;23.88;;;12.52;;
22168;SDS011;11250;53.674;10.102;2022-11-23T11:44:54;23.98;;;13.43;;
22168;SDS011;11250;53.674;10.102;2022-11-23T11:47:26;20.08;;;13.05;;
22168;SDS011;11250;53.674;10.102;2022-11-23T11:49:53;19.98;;;12.98;;
22168;SDS011;11250;53.674;10.102;2022-11-23T11:52:20;22.30;;;12.93;;
22168;SDS011;11250;53.674;10.102;2022-11-23T11:57:18;20.98;;;13.98;;
22168;SDS011;11250;53.674;10.102;2022-11-23T11:59:46;21.83;;;12.95;;
22168;SDS011;11250;53.674;10.102;2022-11-23T12:04:42;22.13;;;14.17;;
22168;SDS011;11250;53.674;10.102;2022-11-23T12:07:21;22.30;;;14.85;;
22168;SDS011;11250;53.674;10.102;2022-11-23T12:09:49;28.77;;;16.02;;
22168;SDS011;11250;53.674;10.102;2022-11-23T12:12:16;27.08;;;15.23;;
22168;SDS011;11250;53.674;10.102;2022-11-23T12:14:42;22.88;;;15.35;;
22168;SDS011;11250;53.674;10.102;2022-11-23T12:17:30;26.65;;;14.65;;
22168;SDS011;11250;53.674;10.102;2022-11-23T12:25:15;21.85;;;15.40;;
22168;SDS011;11250;53.674;10.102;2022-11-23T12:27:47;31.80;;;15.45;;
22168;SDS011;11250;53.674;10.102;2022-11-23T12:30:19;22.85;;;14.38;;
22168;SDS011;11250;53.674;10.102;2022-11-23T12:38:20;24.30;;;15.00;;
22168;SDS011;11250;53.674;10.102;2022-11-23T12:41:02;58.03;;;31.98;;
22168;SDS011;11250;53.674;10.102;2022-11-23T12:43:31;76.22;;;43.15;;
22168;SDS011;11250;53.674;10.102;2022-11-23T12:49:00;23.17;;;13.05;;
22168;SDS011;11250;53.674;10.102;2022-11-23T12:56:48;21.52;;;11.73;;
22168;SDS011;11250;53.674;10.102;2022-11-23T12:59:15;26.75;;;13.70;;
22168;SDS011;11250;53.674;10.102;2022-11-23T13:01:41;25.10;;;12.68;;
22168;SDS011;11250;53.674;10.102;2022-11-23T13:04:17;24.20;;;12.40;;
22168;SDS011;11250;53.674;10.102;2022-11-23T13:06:51;21.08;;;12.20;;
22168;SDS011;11250;53.674;10.102;2022-11-23T13:09:43;15.57;;;10.73;;
22168;SDS011;11250;53.674;10.102;2022-11-23T13:12:14;18.48;;;10.98;;
22168;SDS011;11250;53.674;10.102;2022-11-23T13:17:15;17.88;;;11.77;;
22168;SDS011;11250;53.674;10.102;2022-11-23T13:22:12;14.23;;;9.95;;
22168;SDS011;11250;53.674;10.102;2022-11-23T13:24:40;24.95;;;11.23;;
22168;SDS011;11250;53.674;10.102;2022-11-23T13:35:00;19.38;;;10.65;;
22168;SDS011;11250;53.674;10.102;2022-11-23T13:37:25;20.00;;;9.80;;
22168;SDS011;11250;53.674;10.102;2022-11-23T13:42:20;15.40;;;9.65;;
22168;SDS011;11250;53.674;10.102;2022-11-23T13:44:45;18.80;;;9.38;;
22168;SDS011;11250;53.674;10.102;2022-11-23T13:49:40;22.67;;;9.80;;
22168;SDS011;11250;53.674;10.102;2022-11-23T13:55:00;19.45;;;10.40;;
22168;SDS011;11250;53.674;10.102;2022-11-23T13:57:26;14.18;;;9.73;;
22168;SDS011;11250;53.674;10.102;2022-11-23T13:59:52;13.95;;;9.18;;
22168;SDS011;11250;53.674;10.102;2022-11-23T14:02:22;16.42;;;10.00;;
22168;SDS011;11250;53.674;10.102;2022-11-23T14:04:48;17.90;;;9.30;;
22168;SDS011;11250;53.674;10.102;2022-11-23T14:07:18;15.30;;;9.23;;
22168;SDS011;11250;53.674;10.102;2022-11-23T14:12:16;18.48;;;9.80;;
22168;SDS011;11250;53.674;10.102;2022-11-23T14:22:25;14.20;;;8.95;;
22168;SDS011;11250;53.674;10.102;2022-11-23T14:25:17;14.20;;;8.48;;
22168;SDS011;11250;53.674;10.102;2022-11-23T14:33:13;10.23;;;8.07;;
22168;SDS011;11250;53.674;10.102;2022-11-23T14:35:43;15.88;;;9.02;;
22168;SDS011;11250;53.674;10.102;2022-11-23T14:43:14;15.90;;;9.70;;
22168;SDS011;11250;53.674;10.102;2022-11-23T14:45:43;13.45;;;9.10;;
22168;SDS011;11250;53.674;10.102;2022-11-23T14:48:21;17.80;;;9.27;;
22168;SDS011;11250;53.674;10.102;2022-11-23T14:50:57;14.05;;;9.48;;
22168;SDS011;11250;53.674;10.102;2022-11-23T14:53:24;12.88;;;10.25;;
22168;SDS011;11250;53.674;10.102;2022-11-23T14:55:49;15.75;;;9.90;;
22168;SDS011;11250;53.674;10.102;2022-11-23T14:58:15;15.50;;;10.77;;
22168;SDS011;11250;53.674;10.102;2022-11-23T15:00:41;18.55;;;10.05;;
22168;SDS011;11250;53.674;10.102;2022-11-23T15:03:13;17.17;;;9.23;;
22168;SDS011;11250;53.674;10.102;2022-11-23T15:05:39;16.10;;;10.02;;
22168;SDS011;11250;53.674;10.102;2022-11-23T15:13:22;20.10;;;11.35;;
22168;SDS011;11250;53.674;10.102;2022-11-23T15:15:49;19.83;;;11.63;;
22168;SDS011;11250;53.674;10.102;2022-11-23T15:18:25;20.50;;;11.65;;
22168;SDS011;11250;53.674;10.102;2022-11-23T15:20:50;18.20;;;10.73;;
22168;SDS011;11250;53.674;10.102;2022-11-23T15:23:20;19.08;;;10.07;;
22168;SDS011;11250;53.674;10.102;2022-11-23T15:25:52;14.20;;;9.73;;
22168;SDS011;11250;53.674;10.102;2022-11-23T15:28:18;15.80;;;10.48;;
22168;SDS011;11250;53.674;10.102;2022-11-23T15:30:46;20.83;;;11.45;;
22168;SDS011;11250;53.674;10.102;2022-11-23T15:33:11;17.90;;;10.43;;
22168;SDS011;11250;53.674;10.102;2022-11-23T15:35:37;21.77;;;10.63;;
22168;SDS011;11250;53.674;10.102;2022-11-23T15:38:03;18.05;;;10.30;;
22168;SDS011;11250;53.674;10.102;2022-11-23T15:40:31;21.42;;;10.50;;
22168;SDS011;11250;53.674;10.102;2022-11-23T15:42:56;19.52;;;11.15;;
22168;SDS011;11250;53.674;10.102;2022-11-23T15:45:34;15.40;;;10.82;;
22168;SDS011;11250;53.674;10.102;2022-11-23T15:48:01;17.50;;;10.25;;
22168;SDS011;11250;53.674;10.102;2022-11-23T15:50:26;15.07;;;11.00;;
22168;SDS011;11250;53.674;10.102;2022-11-23T15:52:52;16.60;;;11.37;;
22168;SDS011;11250;53.674;10.102;2022-11-23T15:55:17;17.10;;;10.87;;
22168;SDS011;11250;53.674;10.102;2022-11-23T15:57:44;20.73;;;11.45;;
22168;SDS011;11250;53.674;10.102;2022-11-23T16:00:20;28.92;;;12.52;;
22168;SDS011;11250;53.674;10.102;2022-11-23T16:02:46;16.40;;;11.10;;
22168;SDS011;11250;53.674;10.102;2022-11-23T16:05:19;21.55;;;12.13;;
22168;SDS011;11250;53.674;10.102;2022-11-23T16:10:18;21.00;;;11.68;;
22168;SDS011;11250;53.674;10.102;2022-11-23T16:12:51;25.55;;;12.32;;
22168;SDS011;11250;53.674;10.102;2022-11-23T16:17:51;20.88;;;12.65;;
22168;SDS011;11250;53.674;10.102;2022-11-23T16:20:22;20.10;;;12.83;;
22168;SDS011;11250;53.674;10.102;2022-11-23T16:22:48;21.02;;;12.98;;
22168;SDS011;11250;53.674;10.102;2022-11-23T16:27:45;23.42;;;12.02;;
22168;SDS011;11250;53.674;10.102;2022-11-23T16:30:24;23.13;;;13.60;;
22168;SDS011;11250;53.674;10.102;2022-11-23T16:32:50;25.13;;;13.95;;
22168;SDS011;11250;53.674;10.102;2022-11-23T16:35:16;20.42;;;13.05;;
22168;SDS011;11250;53.674;10.102;2022-11-23T16:37:42;21.05;;;12.85;;
22168;SDS011;11250;53.674;10.102;2022-11-23T16:40:07;23.50;;;13.48;;
22168;SDS011;11250;53.674;10.102;2022-11-23T16:42:33;27.35;;;13.85;;
22168;SDS011;11250;53.674;10.102;2022-11-23T16:44:58;20.97;;;13.63;;
22168;SDS011;11250;53.674;10.102;2022-11-23T16:47:24;18.97;;;12.70;;
22168;SDS011;11250;53.674;10.102;2022-11-23T16:49:49;17.55;;;13.15;;
22168;SDS011;11250;53.674;10.102;2022-11-23T16:52:15;18.38;;;13.13;;
22168;SDS011;11250;53.674;10.102;2022-11-23T16:54:40;25.88;;;13.70;;
22168;SDS011;11250;53.674;10.102;2022-11-23T16:57:05;24.30;;;13.47;;
22168;SDS011;11250;53.674;10.102;2022-11-23T16:59:31;18.60;;;13.02;;
22168;SDS011;11250;53.674;10.102;2022-11-23T17:01:57;22.70;;;12.70;;
22168;SDS011;11250;53.674;10.102;2022-11-23T17:04:22;22.67;;;13.30;;
22168;SDS011;11250;53.674;10.102;2022-11-23T17:06:48;19.25;;;13.15;;
22168;SDS011;11250;53.674;10.102;2022-11-23T17:09:13;22.75;;;13.23;;
22168;SDS011;11250;53.674;10.102;2022-11-23T17:11:39;18.43;;;13.60;;
22168;SDS011;11250;53.674;10.102;2022-11-23T17:14:06;21.90;;;12.38;;
22168;SDS011;11250;53.674;10.102;2022-11-23T17:16:31;21.63;;;13.98;;
22168;SDS011;11250;53.674;10.102;2022-11-23T17:18:58;24.05;;;13.63;;
22168;SDS011;11250;53.674;10.102;2022-11-23T17:21:23;18.67;;;12.57;;
22168;SDS011;11250;53.674;10.102;2022-11-23T17:23:48;18.13;;;12.67;;
22168;SDS011;11250;53.674;10.102;2022-11-23T17:26:21;22.60;;;12.63;;
22168;SDS011;11250;53.674;10.102;2022-11-23T17:28:49;21.73;;;13.75;;
22168;SDS011;11250;53.674;10.102;2022-11-23T17:31:14;17.30;;;12.50;;
22168;SDS011;11250;53.674;10.102;2022-11-23T17:33:39;20.92;;;14.77;;
22168;SDS011;11250;53.674;10.102;2022-11-23T17:36:05;20.17;;;13.90;;
22168;SDS011;11250;53.674;10.102;2022-11-23T17:38:30;20.25;;;13.65;;
22168;SDS011;11250;53.674;10.102;2022-11-23T17:40:55;21.35;;;15.23;;
22168;SDS011;11250;53.674;10.102;2022-11-23T17:43:20;27.20;;;14.60;;
22168;SDS011;11250;53.674;10.102;2022-11-23T17:45:46;24.93;;;14.80;;
22168;SDS011;11250;53.674;10.102;2022-11-23T17:48:11;25.95;;;14.32;;
22168;SDS011;11250;53.674;10.102;2022-11-23T17:50:37;21.95;;;13.45;;
22168;SDS011;11250;53.674;10.102;2022-11-23T17:53:02;21.65;;;12.88;;
22168;SDS011;11250;53.674;10.102;2022-11-23T17:55:27;18.95;;;14.00;;
22168;SDS011;11250;53.674;10.102;2022-11-23T17:57:53;17.63;;;12.77;;
22168;SDS011;11250;53.674;10.102;2022-11-23T18:00:19;18.38;;;13.50;;
22168;SDS011;11250;53.674;10.102;2022-11-23T18:02:45;22.63;;;12.98;;
22168;SDS011;11250;53.674;10.102;2022-11-23T18:05:11;25.77;;;14.60;;
22168;SDS011;11250;53.674;10.102;2022-11-23T18:07:37;17.38;;;12.30;;
22168;SDS011;11250;53.674;10.102;2022-11-23T18:10:02;23.50;;;13.73;;
22168;SDS011;11250;53.674;10.102;2022-11-23T18:12:28;20.52;;;13.23;;
22168;SDS011;11250;53.674;10.102;2022-11-23T18:14:53;22.83;;;13.48;;
22168;SDS011;11250;53.674;10.102;2022-11-23T18:17:18;21.80;;;13.77;;
22168;SDS011;11250;53.674;10.102;2022-11-23T18:19:46;22.95;;;13.70;;
22168;SDS011;11250;53.674;10.102;2022-11-23T18:22:11;25.85;;;15.02;;
22168;SDS011;11250;53.674;10.102;2022-11-23T18:24:37;22.48;;;14.48;;
22168;SDS011;11250;53.674;10.102;2022-11-23T18:27:02;24.43;;;15.97;;
22168;SDS011;11250;53.674;10.102;2022-11-23T18:29:27;31.23;;;17.27;;
22168;SDS011;11250;53.674;10.102;2022-11-23T18:31:52;26.40;;;16.17;;
22168;SDS011;11250;53.674;10.102;2022-11-23T18:34:18;25.30;;;16.67;;
22168;SDS011;11250;53.674;10.102;2022-11-23T18:36:43;26.23;;;15.93;;
22168;SDS011;11250;53.674;10.102;2022-11-23T18:39:08;25.42;;;15.27;;
22168;SDS011;11250;53.674;10.102;2022-11-23T18:41:34;24.10;;;15.60;;
22168;SDS011;11250;53.674;10.102;2022-11-23T18:43:59;21.60;;;14.67;;
22168;SDS011;11250;53.674;10.102;2022-11-23T18:46:24;19.30;;;14.18;;
22168;SDS011;11250;53.674;10.102;2022-11-23T18:48:49;22.88;;;14.88;;
22168;SDS011;11250;53.674;10.102;2022-11-23T18:51:15;26.20;;;15.07;;
22168;SDS011;11250;53.674;10.102;2022-11-23T18:53:41;22.67;;;14.93;;
22168;SDS011;11250;53.674;10.102;2022-11-23T18:56:07;25.88;;;16.15;;
22168;SDS011;11250;53.674;10.102;2022-11-23T18:58:36;28.23;;;14.48;;
22168;SDS011;11250;53.674;10.102;2022-11-23T19:01:06;24.05;;;14.27;;
22168;SDS011;11250;53.674;10.102;2022-11-23T19:03:34;25.08;;;16.00;;
22168;SDS011;11250;53.674;10.102;2022-11-23T19:06:00;32.58;;;17.25;;
22168;SDS011;11250;53.674;10.102;2022-11-23T19:08:25;24.45;;;15.75;;
22168;SDS011;11250;53.674;10.102;2022-11-23T19:10:50;24.73;;;15.07;;
22168;SDS011;11250;53.674;10.102;2022-11-23T19:13:15;26.30;;;15.83;;
22168;SDS011;11250;53.674;10.102;2022-11-23T19:15:41;21.03;;;16.73;;
22168;SDS011;11250;53.674;10.102;2022-11-23T19:18:06;28.27;;;17.95;;
22168;SDS011;11250;53.674;10.102;2022-11-23T19:20:31;24.27;;;16.67;;
22168;SDS011;11250;53.674;10.102;2022-11-23T19:22:56;29.00;;;16.80;;
22168;SDS011;11250;53.674;10.102;2022-11-23T19:25:22;26.95;;;17.58;;
22168;SDS011;11250;53.674;10.102;2022-11-23T19:27:47;37.45;;;17.65;;
22168;SDS011;11250;53.674;10.102;2022-11-23T19:30:13;29.65;;;17.55;;
22168;SDS011;11250;53.674;10.102;2022-11-23T19:32:38;28.38;;;16.10;;
22168;SDS011;11250;53.674;10.102;2022-11-23T19:35:04;28.70;;;17.08;;
22168;SDS011;11250;53.674;10.102;2022-11-23T19:37:29;27.67;;;17.80;;
22168;SDS011;11250;53.674;10.102;2022-11-23T19:39:54;26.30;;;16.67;;
22168;SDS011;11250;53.674;10.102;2022-11-23T19:42:20;27.75;;;17.35;;
22168;SDS011;11250;53.674;10.102;2022-11-23T19:44:45;31.45;;;16.33;;
22168;SDS011;11250;53.674;10.102;2022-11-23T19:47:10;26.02;;;16.60;;
22168;SDS011;11250;53.674;10.102;2022-11-23T19:49:35;21.35;;;16.70;;
22168;SDS011;11250;53.674;10.102;2022-11-23T19:52:01;23.13;;;16.63;;
22168;SDS011;11250;53.674;10.102;2022-11-23T19:54:26;25.20;;;16.77;;
22168;SDS011;11250;53.674;10.102;2022-11-23T19:56:51;26.67;;;16.73;;
22168;SDS011;11250;53.674;10.102;2022-11-23T19:59:17;31.27;;;17.38;;
22168;SDS011;11250;53.674;10.102;2022-11-23T20:01:42;22.02;;;14.90;;
22168;SDS011;11250;53.674;10.102;2022-11-23T20:04:08;24.08;;;15.95;;
22168;SDS011;11250;53.674;10.102;2022-11-23T20:06:34;26.15;;;16.27;;
22168;SDS011;11250;53.674;10.102;2022-11-23T20:09:10;24.92;;;16.08;;
22168;SDS011;11250;53.674;10.102;2022-11-23T20:11:37;26.48;;;17.00;;
22168;SDS011;11250;53.674;10.102;2022-11-23T20:14:02;19.48;;;15.15;;
22168;SDS011;11250;53.674;10.102;2022-11-23T20:16:29;26.20;;;16.17;;
22168;SDS011;11250;53.674;10.102;2022-11-23T20:18:55;27.25;;;16.23;;
22168;SDS011;11250;53.674;10.102;2022-11-23T20:21:21;25.73;;;18.92;;
22168;SDS011;11250;53.674;10.102;2022-11-23T20:23:47;23.38;;;18.33;;
22168;SDS011;11250;53.674;10.102;2022-11-23T20:26:14;27.15;;;19.83;;
22168;SDS011;11250;53.674;10.102;2022-11-23T20:28:40;28.60;;;19.63;;
22168;SDS011;11250;53.674;10.102;2022-11-23T20:31:06;25.30;;;16.25;;
22168;SDS011;11250;53.674;10.102;2022-11-23T20:33:33;25.70;;;19.90;;
22168;SDS011;11250;53.674;10.102;2022-11-23T20:36:08;30.03;;;20.30;;
22168;SDS011;11250;53.674;10.102;2022-11-23T20:38:36;26.40;;;18.58;;
22168;SDS011;11250;53.674;10.102;2022-11-23T20:41:15;27.38;;;19.70;;
22168;SDS011;11250;53.674;10.102;2022-11-23T20:43:41;28.88;;;17.70;;
22168;SDS011;11250;53.674;10.102;2022-11-23T20:46:06;22.55;;;18.50;;
22168;SDS011;11250;53.674;10.102;2022-11-23T20:48:32;25.90;;;18.88;;
22168;SDS011;11250;53.674;10.102;2022-11-23T20:50:59;23.90;;;17.45;;
22168;SDS011;11250;53.674;10.102;2022-11-23T20:53:24;24.58;;;16.58;;
22168;SDS011;11250;53.674;10.102;2022-11-23T20:55:50;21.63;;;15.13;;
22168;SDS011;11250;53.674;10.102;2022-11-23T20:58:15;26.77;;;17.00;;
22168;SDS011;11250;53.674;10.102;2022-11-23T21:00:40;21.40;;;15.52;;
22168;SDS011;11250;53.674;10.102;2022-11-23T21:03:07;29.35;;;16.30;;
22168;SDS011;11250;53.674;10.102;2022-11-23T21:05:33;23.58;;;15.90;;
22168;SDS011;11250;53.674;10.102;2022-11-23T21:07:59;21.48;;;15.27;;
22168;SDS011;11250;53.674;10.102;2022-11-23T21:10:25;27.40;;;16.52;;
22168;SDS011;11250;53.674;10.102;2022-11-23T21:13:12;21.13;;;16.05;;
22168;SDS011;11250;53.674;10.102;2022-11-23T21:16:02;24.23;;;16.65;;
22168;SDS011;11250;53.674;10.102;2022-11-23T21:18:27;22.20;;;16.02;;
22168;SDS011;11250;53.674;10.102;2022-11-23T21:20:53;24.90;;;16.30;;
22168;SDS011;11250;53.674;10.102;2022-11-23T21:23:18;20.77;;;15.55;;
22168;SDS011;11250;53.674;10.102;2022-11-23T21:25:43;22.77;;;14.77;;
22168;SDS011;11250;53.674;10.102;2022-11-23T21:28:08;19.75;;;15.35;;
22168;SDS011;11250;53.674;10.102;2022-11-23T21:30:34;19.40;;;14.27;;
22168;SDS011;11250;53.674;10.102;2022-11-23T21:32:59;20.05;;;14.60;;
22168;SDS011;11250;53.674;10.102;2022-11-23T21:35:24;27.07;;;16.10;;
22168;SDS011;11250;53.674;10.102;2022-11-23T21:37:50;25.45;;;16.67;;
22168;SDS011;11250;53.674;10.102;2022-11-23T21:40:15;24.67;;;15.43;;
22168;SDS011;11250;53.674;10.102;2022-11-23T21:42:40;24.53;;;15.20;;
22168;SDS011;11250;53.674;10.102;2022-11-23T21:45:08;20.55;;;15.23;;
22168;SDS011;11250;53.674;10.102;2022-11-23T21:47:34;22.95;;;15.25;;
22168;SDS011;11250;53.674;10.102;2022-11-23T21:49:59;28.00;;;15.60;;
22168;SDS011;11250;53.674;10.102;2022-11-23T21:52:24;23.27;;;15.83;;
22168;SDS011;11250;53.674;10.102;2022-11-23T21:54:49;25.37;;;15.83;;
22168;SDS011;11250;53.674;10.102;2022-11-23T21:57:15;21.17;;;14.90;;
22168;SDS011;11250;53.674;10.102;2022-11-23T21:59:40;24.37;;;15.17;;
22168;SDS011;11250;53.674;10.102;2022-11-23T22:02:06;22.40;;;15.73;;
22168;SDS011;11250;53.674;10.102;2022-11-23T22:04:33;24.20;;;15.32;;
22168;SDS011;11250;53.674;10.102;2022-11-23T22:07:00;24.98;;;15.82;;
22168;SDS011;11250;53.674;10.102;2022-11-23T22:09:25;28.50;;;15.50;;
22168;SDS011;11250;53.674;10.102;2022-11-23T22:11:51;24.23;;;15.70;;
22168;SDS011;11250;53.674;10.102;2022-11-23T22:14:16;22.50;;;15.57;;
22168;SDS011;11250;53.674;10.102;2022-11-23T22:16:44;25.83;;;16.02;;
22168;SDS011;11250;53.674;10.102;2022-11-23T22:19:10;24.38;;;15.88;;
22168;SDS011;11250;53.674;10.102;2022-11-23T22:21:36;23.08;;;15.93;;
22168;SDS011;11250;53.674;10.102;2022-11-23T22:24:02;24.13;;;15.77;;
22168;SDS011;11250;53.674;10.102;2022-11-23T22:26:28;27.85;;;15.90;;
22168;SDS011;11250;53.674;10.102;2022-11-23T22:28:53;31.63;;;16.55;;
22168;SDS011;11250;53.674;10.102;2022-11-23T22:31:20;24.48;;;15.65;;
22168;SDS011;11250;53.674;10.102;2022-11-23T22:33:46;26.88;;;15.70;;
22168;SDS011;11250;53.674;10.102;2022-11-23T22:36:12;23.15;;;14.32;;
22168;SDS011;11250;53.674;10.102;2022-11-23T22:38:37;23.75;;;16.17;;
22168;SDS011;11250;53.674;10.102;2022-11-23T22:41:04;28.45;;;17.30;;
22168;SDS011;11250;53.674;10.102;2022-11-23T22:43:30;31.30;;;20.60;;
22168;SDS011;11250;53.674;10.102;2022-11-23T22:46:02;27.73;;;19.08;;
22168;SDS011;11250;53.674;10.102;2022-11-23T22:48:27;26.15;;;17.92;;
22168;SDS011;11250;53.674;10.102;2022-11-23T22:50:56;25.92;;;16.95;;
22168;SDS011;11250;53.674;10.102;2022-11-23T22:53:22;26.92;;;14.88;;
22168;SDS011;11250;53.674;10.102;2022-11-23T22:55:47;26.75;;;15.60;;
22168;SDS011;11250;53.674;10.102;2022-11-23T22:58:12;21.73;;;14.02;;
22168;SDS011;11250;53.674;10.102;2022-11-23T23:00:38;24.63;;;14.18;;
22168;SDS011;11250;53.674;10.102;2022-11-23T23:03:04;25.15;;;15.85;;
22168;SDS011;11250;53.674;10.102;2022-11-23T23:05:29;21.63;;;14.35;;
22168;SDS011;11250;53.674;10.102;2022-11-23T23:07:54;18.85;;;13.57;;
22168;SDS011;11250;53.674;10.102;2022-11-23T23:10:20;26.83;;;15.70;;
22168;SDS011;11250;53.674;10.102;2022-11-23T23:12:45;20.70;;;14.17;;
22168;SDS011;11250;53.674;10.102;2022-11-23T23:15:10;25.45;;;15.05;;
22168;SDS011;11250;53.674;10.102;2022-11-23T23:17:36;27.00;;;14.47;;
22168;SDS011;11250;53.674;10.102;2022-11-23T23:20:02;20.75;;;14.13;;
22168;SDS011;11250;53.674;10.102;2022-11-23T23:22:27;26.33;;;14.20;;
22168;SDS011;11250;53.674;10.102;2022-11-23T23:24:52;19.67;;;14.43;;
22168;SDS011;11250;53.674;10.102;2022-11-23T23:27:17;29.20;;;14.57;;
22168;SDS011;11250;53.674;10.102;2022-11-23T23:29:42;24.50;;;13.13;;
22168;SDS011;11250;53.674;10.102;2022-11-23T23:32:08;22.98;;;13.80;;
22168;SDS011;11250;53.674;10.102;2022-11-23T23:34:34;23.97;;;13.57;;
22168;SDS011;11250;53.674;10.102;2022-11-23T23:36:59;24.20;;;13.57;;
22168;SDS011;11250;53.674;10.102;2022-11-23T23:39:24;22.10;;;12.93;;
22168;SDS011;11250;53.674;10.102;2022-11-23T23:41:49;23.83;;;12.37;;
22168;SDS011;11250;53.674;10.102;2022-11-23T23:44:14;19.37;;;12.53;;
22168;SDS011;11250;53.674;10.102;2022-11-23T23:46:40;20.83;;;12.57;;
22168;SDS011;11250;53.674;10.102;2022-11-23T23:49:05;17.73;;;11.70;;
22168;SDS011;11250;53.674;10.102;2022-11-23T23:51:30;16.60;;;12.25;;
22168;SDS011;11250;53.674;10.102;2022-11-23T23:53:56;22.07;;;12.07;;
22168;SDS011;11250;53.674;10.102;2022-11-23T23:56:22;21.08;;;12.43;;
22168;SDS011;11250;53.674;10.102;2022-11-23T23:58:48;16.73;;;10.82;;
